sensor_id;sensor_type;location;lat;lon;timestamp;pressure;altitude;pressure_sealevel;temperature;humidity
51468;BME280;37545;45.302;-122.946;2023-09-19T00:00:43;101099.09;;;25.71;29.85
51468;BME280;37545;45.302;-122.946;2023-09-19T00:03:13;101089.44;;;25.68;30.21
51468;BME280;37545;45.302;-122.946;2023-09-19T00:05:42;101094.88;;;25.64;29.61
51468;BME280;37545;45.302;-122.946;2023-09-19T00:08:11;101090.56;;;25.60;30.03
51468;BME280;37545;45.302;-122.946;2023-09-19T00:10:43;101091.53;;;25.57;29.88
51468;BME280;37545;45.302;-122.946;2023-09-19T00:13:12;101082.91;;;25.49;29.57
51468;BME280;37545;45.302;-122.946;2023-09-19T00:15:42;101090.25;;;25.38;30.45
51468;BME280;37545;45.302;-122.946;2023-09-19T00:18:14;101099.38;;;25.27;29.77
51468;BME280;37545;45.302;-122.946;2023-09-19T00:20:46;101101.34;;;25.19;29.66
51468;BME280;37545;45.302;-122.946;2023-09-19T00:23:15;101110.31;;;25.12;30.35
51468;BME280;37545;45.302;-122.946;2023-09-19T00:25:45;101109.56;;;25.08;30.66
51468;BME280;37545;45.302;-122.946;2023-09-19T00:28:24;101109.81;;;24.98;30.49
51468;BME280;37545;45.302;-122.946;2023-09-19T00:30:54;101108.22;;;24.91;30.59
51468;BME280;37545;45.302;-122.946;2023-09-19T00:33:23;101105.84;;;24.78;29.69
51468;BME280;37545;45.302;-122.946;2023-09-19T00:35:53;101104.38;;;24.66;30.53
51468;BME280;37545;45.302;-122.946;2023-09-19T00:38:25;101092.22;;;24.58;30.53
51468;BME280;37545;45.302;-122.946;2023-09-19T00:40:56;101093.34;;;24.48;30.56
51468;BME280;37545;45.302;-122.946;2023-09-19T00:43:26;101095.25;;;24.39;30.50
51468;BME280;37545;45.302;-122.946;2023-09-19T00:45:56;101091.00;;;24.32;31.61
51468;BME280;37545;45.302;-122.946;2023-09-19T00:48:27;101086.75;;;24.25;31.84
51468;BME280;37545;45.302;-122.946;2023-09-19T00:50:57;101085.25;;;24.15;30.34
51468;BME280;37545;45.302;-122.946;2023-09-19T00:53:28;101082.91;;;23.99;30.84
51468;BME280;37545;45.302;-122.946;2023-09-19T00:56:05;101080.47;;;23.90;30.73
51468;BME280;37545;45.302;-122.946;2023-09-19T00:58:37;101082.34;;;23.85;30.70
51468;BME280;37545;45.302;-122.946;2023-09-19T01:01:07;101073.66;;;23.78;30.13
51468;BME280;37545;45.302;-122.946;2023-09-19T01:03:38;101072.94;;;23.69;31.24
51468;BME280;37545;45.302;-122.946;2023-09-19T01:06:07;101074.84;;;23.60;31.32
51468;BME280;37545;45.302;-122.946;2023-09-19T01:11:16;101070.84;;;23.41;30.60
51468;BME280;37545;45.302;-122.946;2023-09-19T01:14:00;101078.94;;;23.30;31.04
51468;BME280;37545;45.302;-122.946;2023-09-19T01:16:36;101075.63;;;23.17;30.94
51468;BME280;37545;45.302;-122.946;2023-09-19T01:19:45;101075.88;;;23.05;32.05
51468;BME280;37545;45.302;-122.946;2023-09-19T01:22:29;101076.00;;;22.93;31.07
51468;BME280;37545;45.302;-122.946;2023-09-19T01:25:26;101091.19;;;22.82;31.23
51468;BME280;37545;45.302;-122.946;2023-09-19T01:28:18;101086.97;;;22.68;31.08
51468;BME280;37545;45.302;-122.946;2023-09-19T01:30:56;101089.78;;;22.56;32.07
51468;BME280;37545;45.302;-122.946;2023-09-19T01:33:27;101089.91;;;22.48;32.39
51468;BME280;37545;45.302;-122.946;2023-09-19T01:36:00;101097.09;;;22.35;32.11
51468;BME280;37545;45.302;-122.946;2023-09-19T01:38:30;101090.25;;;22.24;32.04
51468;BME280;37545;45.302;-122.946;2023-09-19T01:41:05;101089.53;;;22.11;32.29
51468;BME280;37545;45.302;-122.946;2023-09-19T01:43:40;101080.88;;;22.00;32.14
51468;BME280;37545;45.302;-122.946;2023-09-19T01:46:16;101074.06;;;21.83;32.47
51468;BME280;37545;45.302;-122.946;2023-09-19T01:48:57;101075.03;;;21.74;32.94
51468;BME280;37545;45.302;-122.946;2023-09-19T01:51:34;101083.91;;;21.66;33.07
51468;BME280;37545;45.302;-122.946;2023-09-19T01:54:10;101079.59;;;21.59;32.75
51468;BME280;37545;45.302;-122.946;2023-09-19T01:56:45;101085.81;;;21.48;33.20
51468;BME280;37545;45.302;-122.946;2023-09-19T01:59:24;101074.53;;;21.42;33.32
51468;BME280;37545;45.302;-122.946;2023-09-19T02:01:55;101085.13;;;21.28;33.08
51468;BME280;37545;45.302;-122.946;2023-09-19T02:04:24;101076.47;;;21.17;33.42
51468;BME280;37545;45.302;-122.946;2023-09-19T02:06:53;101073.06;;;21.05;34.14
51468;BME280;37545;45.302;-122.946;2023-09-19T02:09:24;101074.00;;;20.93;33.96
51468;BME280;37545;45.302;-122.946;2023-09-19T02:11:53;101075.00;;;20.85;34.68
51468;BME280;37545;45.302;-122.946;2023-09-19T02:14:23;101082.94;;;20.76;34.46
51468;BME280;37545;45.302;-122.946;2023-09-19T02:16:55;101094.41;;;20.68;34.70
51468;BME280;37545;45.302;-122.946;2023-09-19T02:19:31;101095.31;;;20.60;35.52
51468;BME280;37545;45.302;-122.946;2023-09-19T02:22:00;101090.97;;;20.49;35.57
51468;BME280;37545;45.302;-122.946;2023-09-19T02:24:29;101095.38;;;20.43;35.79
51468;BME280;37545;45.302;-122.946;2023-09-19T02:26:58;101093.66;;;20.36;35.86
51468;BME280;37545;45.302;-122.946;2023-09-19T02:29:30;101094.59;;;20.28;36.26
51468;BME280;37545;45.302;-122.946;2023-09-19T02:32:00;101098.13;;;20.21;36.53
51468;BME280;37545;45.302;-122.946;2023-09-19T02:34:29;101097.28;;;20.16;36.48
51468;BME280;37545;45.302;-122.946;2023-09-19T02:36:58;101092.94;;;20.06;36.59
51468;BME280;37545;45.302;-122.946;2023-09-19T02:39:29;101096.47;;;19.99;36.62
51468;BME280;37545;45.302;-122.946;2023-09-19T02:41:58;101102.63;;;19.90;36.98
51468;BME280;37545;45.302;-122.946;2023-09-19T02:44:26;101105.28;;;19.82;37.37
51468;BME280;37545;45.302;-122.946;2023-09-19T02:46:55;101114.06;;;19.75;36.99
51468;BME280;37545;45.302;-122.946;2023-09-19T02:49:25;101118.41;;;19.67;37.18
51468;BME280;37545;45.302;-122.946;2023-09-19T02:51:54;101119.28;;;19.58;37.56
51468;BME280;37545;45.302;-122.946;2023-09-19T02:54:25;101124.59;;;19.48;37.50
51468;BME280;37545;45.302;-122.946;2023-09-19T02:56:54;101138.59;;;19.43;37.92
51468;BME280;37545;45.302;-122.946;2023-09-19T02:59:23;101129.84;;;19.32;37.34
51468;BME280;37545;45.302;-122.946;2023-09-19T03:01:51;101146.47;;;19.25;37.88
51468;BME280;37545;45.302;-122.946;2023-09-19T03:04:21;101149.06;;;19.19;38.03
51468;BME280;37545;45.302;-122.946;2023-09-19T03:06:51;101149.09;;;19.13;38.08
51468;BME280;37545;45.302;-122.946;2023-09-19T03:09:25;101152.59;;;19.09;38.21
51468;BME280;37545;45.302;-122.946;2023-09-19T03:11:53;101149.09;;;19.03;37.90
51468;BME280;37545;45.302;-122.946;2023-09-19T03:14:24;101151.69;;;18.97;38.43
51468;BME280;37545;45.302;-122.946;2023-09-19T03:16:56;101150.81;;;18.91;38.60
51468;BME280;37545;45.302;-122.946;2023-09-19T03:19:26;101150.81;;;18.86;39.03
51468;BME280;37545;45.302;-122.946;2023-09-19T03:22:07;101155.16;;;18.82;38.98
51468;BME280;37545;45.302;-122.946;2023-09-19T03:24:36;101153.34;;;18.75;39.18
51468;BME280;37545;45.302;-122.946;2023-09-19T03:27:05;101169.16;;;18.78;38.78
51468;BME280;37545;45.302;-122.946;2023-09-19T03:29:35;101165.59;;;18.72;39.27
51468;BME280;37545;45.302;-122.946;2023-09-19T03:32:07;101169.94;;;18.67;39.06
51468;BME280;37545;45.302;-122.946;2023-09-19T03:34:37;101171.66;;;18.61;39.17
51468;BME280;37545;45.302;-122.946;2023-09-19T03:37:10;101173.41;;;18.56;39.81
51468;BME280;37545;45.302;-122.946;2023-09-19T03:39:39;101171.66;;;18.52;39.74
51468;BME280;37545;45.302;-122.946;2023-09-19T03:42:08;101175.13;;;18.45;39.61
51468;BME280;37545;45.302;-122.946;2023-09-19T03:44:36;101183.81;;;18.41;39.41
51468;BME280;37545;45.302;-122.946;2023-09-19T03:47:05;101174.19;;;18.37;39.98
51468;BME280;37545;45.302;-122.946;2023-09-19T03:49:33;101169.81;;;18.34;39.61
51468;BME280;37545;45.302;-122.946;2023-09-19T03:52:03;101171.56;;;18.29;40.48
51468;BME280;37545;45.302;-122.946;2023-09-19T03:54:34;101161.06;;;18.21;40.09
51468;BME280;37545;45.302;-122.946;2023-09-19T03:57:03;101167.13;;;18.17;40.11
51468;BME280;37545;45.302;-122.946;2023-09-19T03:59:45;101165.38;;;18.10;39.93
51468;BME280;37545;45.302;-122.946;2023-09-19T04:02:14;101174.94;;;18.05;40.00
51468;BME280;37545;45.302;-122.946;2023-09-19T04:04:48;101172.31;;;18.00;40.77
51468;BME280;37545;45.302;-122.946;2023-09-19T04:07:17;101178.38;;;17.98;40.12
51468;BME280;37545;45.302;-122.946;2023-09-19T04:09:51;101180.09;;;17.93;40.54
51468;BME280;37545;45.302;-122.946;2023-09-19T04:12:20;101176.56;;;17.86;40.31
51468;BME280;37545;45.302;-122.946;2023-09-19T04:14:48;101182.63;;;17.80;40.44
51468;BME280;37545;45.302;-122.946;2023-09-19T04:17:18;101179.06;;;17.72;40.42
51468;BME280;37545;45.302;-122.946;2023-09-19T04:19:47;101177.28;;;17.70;40.63
51468;BME280;37545;45.302;-122.946;2023-09-19T04:22:17;101176.38;;;17.63;41.11
51468;BME280;37545;45.302;-122.946;2023-09-19T04:24:45;101176.34;;;17.60;40.58
51468;BME280;37545;45.302;-122.946;2023-09-19T04:27:15;101171.97;;;17.56;40.84
51468;BME280;37545;45.302;-122.946;2023-09-19T04:29:45;101179.81;;;17.53;41.42
51468;BME280;37545;45.302;-122.946;2023-09-19T04:32:15;101171.91;;;17.48;40.85
51468;BME280;37545;45.302;-122.946;2023-09-19T04:34:46;101171.88;;;17.45;40.62
51468;BME280;37545;45.302;-122.946;2023-09-19T04:37:16;101167.47;;;17.36;41.61
51468;BME280;37545;45.302;-122.946;2023-09-19T04:39:45;101170.06;;;17.35;40.74
51468;BME280;37545;45.302;-122.946;2023-09-19T04:42:18;101175.28;;;17.33;40.78
51468;BME280;37545;45.302;-122.946;2023-09-19T04:44:47;101169.13;;;17.28;41.01
51468;BME280;37545;45.302;-122.946;2023-09-19T04:47:20;101170.81;;;17.22;41.28
51468;BME280;37545;45.302;-122.946;2023-09-19T04:49:50;101164.69;;;17.18;40.96
51468;BME280;37545;45.302;-122.946;2023-09-19T04:52:31;101172.50;;;17.15;41.25
51468;BME280;37545;45.302;-122.946;2023-09-19T04:54:59;101171.59;;;17.13;40.86
51468;BME280;37545;45.302;-122.946;2023-09-19T04:57:30;101173.31;;;17.08;41.32
51468;BME280;37545;45.302;-122.946;2023-09-19T05:00:01;101174.97;;;17.01;41.18
51468;BME280;37545;45.302;-122.946;2023-09-19T05:02:33;101175.78;;;16.94;41.40
51468;BME280;37545;45.302;-122.946;2023-09-19T05:05:01;101174.00;;;16.88;41.73
51468;BME280;37545;45.302;-122.946;2023-09-19T05:07:31;101178.28;;;16.83;41.70
51468;BME280;37545;45.302;-122.946;2023-09-19T05:10:01;101180.88;;;16.80;41.64
51468;BME280;37545;45.302;-122.946;2023-09-19T05:12:34;101183.44;;;16.77;42.32
51468;BME280;37545;45.302;-122.946;2023-09-19T05:15:03;101189.47;;;16.73;41.67
51468;BME280;37545;45.302;-122.946;2023-09-19T05:17:37;101194.63;;;16.67;42.00
51468;BME280;37545;45.302;-122.946;2023-09-19T05:20:07;101188.47;;;16.62;42.64
51468;BME280;37545;45.302;-122.946;2023-09-19T05:22:39;101196.28;;;16.59;42.34
51468;BME280;37545;45.302;-122.946;2023-09-19T05:25:09;101187.50;;;16.53;42.68
51468;BME280;37545;45.302;-122.946;2023-09-19T05:27:44;101195.31;;;16.50;42.99
51468;BME280;37545;45.302;-122.946;2023-09-19T05:30:13;101204.81;;;16.47;43.54
51468;BME280;37545;45.302;-122.946;2023-09-19T05:32:42;101194.31;;;16.42;43.39
51468;BME280;37545;45.302;-122.946;2023-09-19T05:35:10;101197.78;;;16.38;43.83
51468;BME280;37545;45.302;-122.946;2023-09-19T05:37:39;101192.50;;;16.35;43.87
51468;BME280;37545;45.302;-122.946;2023-09-19T05:40:11;101192.44;;;16.29;44.43
51468;BME280;37545;45.302;-122.946;2023-09-19T05:42:40;101190.63;;;16.25;43.78
51468;BME280;37545;45.302;-122.946;2023-09-19T05:45:12;101189.69;;;16.20;44.41
51468;BME280;37545;45.302;-122.946;2023-09-19T05:47:45;101197.47;;;16.17;43.92
51468;BME280;37545;45.302;-122.946;2023-09-19T05:50:16;101193.06;;;16.12;44.20
51468;BME280;37545;45.302;-122.946;2023-09-19T05:52:52;101198.25;;;16.09;44.80
51468;BME280;37545;45.302;-122.946;2023-09-19T05:55:24;101206.03;;;16.06;45.00
51468;BME280;37545;45.302;-122.946;2023-09-19T05:57:54;101197.31;;;16.04;45.09
51468;BME280;37545;45.302;-122.946;2023-09-19T06:00:25;101199.03;;;16.02;44.62
51468;BME280;37545;45.302;-122.946;2023-09-19T06:02:57;101198.09;;;15.99;45.39
51468;BME280;37545;45.302;-122.946;2023-09-19T06:05:26;101205.00;;;15.95;44.96
51468;BME280;37545;45.302;-122.946;2023-09-19T06:07:56;101208.47;;;15.94;45.72
51468;BME280;37545;45.302;-122.946;2023-09-19T06:10:27;101201.47;;;15.91;45.36
51468;BME280;37545;45.302;-122.946;2023-09-19T06:12:55;101203.16;;;15.88;45.46
51468;BME280;37545;45.302;-122.946;2023-09-19T06:15:26;101207.50;;;15.86;45.33
51468;BME280;37545;45.302;-122.946;2023-09-19T06:17:55;101209.22;;;15.85;46.34
51468;BME280;37545;45.302;-122.946;2023-09-19T06:20:26;101201.31;;;15.82;45.95
51468;BME280;37545;45.302;-122.946;2023-09-19T06:22:54;101196.06;;;15.79;45.90
51468;BME280;37545;45.302;-122.946;2023-09-19T06:25:23;101196.91;;;15.77;45.55
51468;BME280;37545;45.302;-122.946;2023-09-19T06:27:54;101192.41;;;15.69;46.14
51468;BME280;37545;45.302;-122.946;2023-09-19T06:30:25;101205.41;;;15.66;45.41
51468;BME280;37545;45.302;-122.946;2023-09-19T06:32:58;101206.22;;;15.62;45.78
51468;BME280;37545;45.302;-122.946;2023-09-19T06:35:27;101207.03;;;15.58;46.85
51468;BME280;37545;45.302;-122.946;2023-09-19T06:37:56;101199.13;;;15.55;46.24
51468;BME280;37545;45.302;-122.946;2023-09-19T06:40:25;101201.63;;;15.47;46.84
51468;BME280;37545;45.302;-122.946;2023-09-19T06:42:54;101212.84;;;15.42;46.88
51468;BME280;37545;45.302;-122.946;2023-09-19T06:45:23;101205.84;;;15.39;46.49
51468;BME280;37545;45.302;-122.946;2023-09-19T06:47:54;101199.72;;;15.37;46.85
51468;BME280;37545;45.302;-122.946;2023-09-19T06:50:26;101209.28;;;15.38;46.99
51468;BME280;37545;45.302;-122.946;2023-09-19T06:52:57;101209.25;;;15.35;48.40
51468;BME280;37545;45.302;-122.946;2023-09-19T06:55:27;101213.59;;;15.35;48.12
51468;BME280;37545;45.302;-122.946;2023-09-19T06:57:58;101210.09;;;15.33;49.74
51468;BME280;37545;45.302;-122.946;2023-09-19T07:00:26;101221.31;;;15.30;49.39
51468;BME280;37545;45.302;-122.946;2023-09-19T07:03:01;101215.19;;;15.26;48.72
51468;BME280;37545;45.302;-122.946;2023-09-19T07:05:31;101213.00;;;15.02;49.36
51468;BME280;37545;45.302;-122.946;2023-09-19T07:08:00;101207.59;;;14.93;48.78
51468;BME280;37545;45.302;-122.946;2023-09-19T07:10:32;101222.31;;;14.90;49.43
51468;BME280;37545;45.302;-122.946;2023-09-19T07:13:02;101233.56;;;14.88;48.91
51468;BME280;37545;45.302;-122.946;2023-09-19T07:15:33;101224.94;;;14.90;48.88
51468;BME280;37545;45.302;-122.946;2023-09-19T07:18:04;101233.56;;;14.88;49.16
51468;BME280;37545;45.302;-122.946;2023-09-19T07:20:35;101238.78;;;14.88;49.52
51468;BME280;37545;45.302;-122.946;2023-09-19T07:23:03;101230.84;;;14.81;49.68
51468;BME280;37545;45.302;-122.946;2023-09-19T07:25:32;101240.19;;;14.71;50.50
51468;BME280;37545;45.302;-122.946;2023-09-19T07:28:01;101236.59;;;14.64;50.11
51468;BME280;37545;45.302;-122.946;2023-09-19T07:30:29;101245.22;;;14.62;49.83
51468;BME280;37545;45.302;-122.946;2023-09-19T07:32:58;101240.84;;;14.61;50.26
51468;BME280;37545;45.302;-122.946;2023-09-19T07:35:30;101253.81;;;14.58;50.44
51468;BME280;37545;45.302;-122.946;2023-09-19T07:37:59;101264.28;;;14.59;50.35
51468;BME280;37545;45.302;-122.946;2023-09-19T07:40:29;101255.41;;;14.53;50.16
51468;BME280;37545;45.302;-122.946;2023-09-19T07:42:58;101258.84;;;14.52;50.57
51468;BME280;37545;45.302;-122.946;2023-09-19T07:45:27;101261.38;;;14.49;50.61
51468;BME280;37545;45.302;-122.946;2023-09-19T07:47:56;101257.72;;;14.40;51.39
51468;BME280;37545;45.302;-122.946;2023-09-19T07:50:25;101255.06;;;14.37;51.87
51468;BME280;37545;45.302;-122.946;2023-09-19T07:52:55;101255.00;;;14.34;51.62
51468;BME280;37545;45.302;-122.946;2023-09-19T07:55:25;101256.59;;;14.28;51.50
51468;BME280;37545;45.302;-122.946;2023-09-19T07:57:53;101250.41;;;14.22;52.08
51468;BME280;37545;45.302;-122.946;2023-09-19T08:00:22;101251.13;;;14.17;51.93
51468;BME280;37545;45.302;-122.946;2023-09-19T08:02:51;101251.13;;;14.17;52.64
51468;BME280;37545;45.302;-122.946;2023-09-19T08:05:20;101238.88;;;14.11;51.83
51468;BME280;37545;45.302;-122.946;2023-09-19T08:07:48;101252.75;;;14.12;52.46
51468;BME280;37545;45.302;-122.946;2023-09-19T08:10:19;101257.97;;;14.12;52.35
51468;BME280;37545;45.302;-122.946;2023-09-19T08:12:48;101257.13;;;14.13;52.23
51468;BME280;37545;45.302;-122.946;2023-09-19T08:15:23;101256.19;;;14.11;52.89
51468;BME280;37545;45.302;-122.946;2023-09-19T08:17:52;101254.44;;;14.10;53.61
51468;BME280;37545;45.302;-122.946;2023-09-19T08:20:20;101257.97;;;14.12;53.42
51468;BME280;37545;45.302;-122.946;2023-09-19T08:22:49;101250.94;;;14.08;52.32
51468;BME280;37545;45.302;-122.946;2023-09-19T08:25:23;101249.19;;;14.07;52.60
51468;BME280;37545;45.302;-122.946;2023-09-19T08:27:59;101262.16;;;14.05;52.84
51468;BME280;37545;45.302;-122.946;2023-09-19T08:30:32;101256.91;;;14.03;53.86
51468;BME280;37545;45.302;-122.946;2023-09-19T08:33:01;101258.59;;;14.01;55.05
51468;BME280;37545;45.302;-122.946;2023-09-19T08:35:31;101255.88;;;13.97;54.57
51468;BME280;37545;45.302;-122.946;2023-09-19T08:37:59;101260.16;;;13.93;53.29
51468;BME280;37545;45.302;-122.946;2023-09-19T08:40:32;101258.38;;;13.92;54.82
51468;BME280;37545;45.302;-122.946;2023-09-19T08:43:01;101256.69;;;13.94;55.44
51468;BME280;37545;45.302;-122.946;2023-09-19T08:45:31;101257.53;;;13.93;54.53
51468;BME280;37545;45.302;-122.946;2023-09-19T08:48:10;101260.16;;;13.95;53.58
51468;BME280;37545;45.302;-122.946;2023-09-19T08:50:47;101263.63;;;13.94;53.89
51468;BME280;37545;45.302;-122.946;2023-09-19T08:53:24;101258.41;;;13.94;53.27
51468;BME280;37545;45.302;-122.946;2023-09-19T08:55:55;101256.50;;;13.87;54.61
51468;BME280;37545;45.302;-122.946;2023-09-19T08:58:27;101268.56;;;13.83;55.35
51468;BME280;37545;45.302;-122.946;2023-09-19T09:01:01;101273.81;;;13.85;54.52
51468;BME280;37545;45.302;-122.946;2023-09-19T09:03:33;101275.53;;;13.86;54.21
51468;BME280;37545;45.302;-122.946;2023-09-19T09:06:03;101279.06;;;13.86;55.07
51468;BME280;37545;45.302;-122.946;2023-09-19T09:08:34;101273.75;;;13.81;54.63
51468;BME280;37545;45.302;-122.946;2023-09-19T09:11:05;101279.81;;;13.82;54.16
51468;BME280;37545;45.302;-122.946;2023-09-19T09:13:42;101281.50;;;13.80;54.01
51468;BME280;37545;45.302;-122.946;2023-09-19T09:16:20;101278.94;;;13.81;54.08
51468;BME280;37545;45.302;-122.946;2023-09-19T09:18:52;101284.94;;;13.79;55.51
51468;BME280;37545;45.302;-122.946;2023-09-19T09:21:21;101285.81;;;13.79;54.94
51468;BME280;37545;45.302;-122.946;2023-09-19T09:23:49;101280.63;;;13.79;55.13
51468;BME280;37545;45.302;-122.946;2023-09-19T09:26:41;101290.16;;;13.80;54.93
51468;BME280;37545;45.302;-122.946;2023-09-19T09:29:10;101293.63;;;13.79;54.67
51468;BME280;37545;45.302;-122.946;2023-09-19T09:31:39;101291.84;;;13.77;54.84
51468;BME280;37545;45.302;-122.946;2023-09-19T09:34:09;101296.88;;;13.71;55.20
51468;BME280;37545;45.302;-122.946;2023-09-19T09:36:40;101302.91;;;13.70;55.55
51468;BME280;37545;45.302;-122.946;2023-09-19T09:39:10;101301.09;;;13.66;55.60
51468;BME280;37545;45.302;-122.946;2023-09-19T09:41:52;101302.75;;;13.64;55.24
51468;BME280;37545;45.302;-122.946;2023-09-19T09:44:21;101310.56;;;13.64;55.43
51468;BME280;37545;45.302;-122.946;2023-09-19T09:46:50;101300.16;;;13.64;55.43
51468;BME280;37545;45.302;-122.946;2023-09-19T09:49:49;101307.03;;;13.61;55.37
51468;BME280;37545;45.302;-122.946;2023-09-19T09:52:21;101308.72;;;13.59;55.75
51468;BME280;37545;45.302;-122.946;2023-09-19T09:55:00;101317.25;;;13.55;57.69
51468;BME280;37545;45.302;-122.946;2023-09-19T09:57:34;101318.94;;;13.53;56.69
51468;BME280;37545;45.302;-122.946;2023-09-19T10:00:03;101319.72;;;13.49;56.85
51468;BME280;37545;45.302;-122.946;2023-09-19T10:02:46;101308.22;;;13.41;57.65
51468;BME280;37545;45.302;-122.946;2023-09-19T10:05:16;101322.09;;;13.41;56.73
51468;BME280;37545;45.302;-122.946;2023-09-19T10:08:10;101306.47;;;13.40;56.40
51468;BME280;37545;45.302;-122.946;2023-09-19T10:10:45;101307.38;;;13.42;55.95
51468;BME280;37545;45.302;-122.946;2023-09-19T10:13:22;101303.91;;;13.41;56.17
51468;BME280;37545;45.302;-122.946;2023-09-19T10:15:54;101309.22;;;13.46;56.97
51468;BME280;37545;45.302;-122.946;2023-09-19T10:18:25;101306.63;;;13.46;55.31
51468;BME280;37545;45.302;-122.946;2023-09-19T10:20:54;101293.59;;;13.45;53.13
51468;BME280;37545;45.302;-122.946;2023-09-19T10:23:25;101301.59;;;13.52;52.20
51468;BME280;37545;45.302;-122.946;2023-09-19T10:25:55;101314.72;;;13.57;51.08
51468;BME280;37545;45.302;-122.946;2023-09-19T10:28:28;101313.09;;;13.62;50.64
51468;BME280;37545;45.302;-122.946;2023-09-19T10:30:59;101313.19;;;13.65;53.10
51468;BME280;37545;45.302;-122.946;2023-09-19T10:33:36;101311.47;;;13.66;51.44
51468;BME280;37545;45.302;-122.946;2023-09-19T10:36:08;101321.09;;;13.70;50.90
51468;BME280;37545;45.302;-122.946;2023-09-19T10:38:39;101312.44;;;13.69;52.01
51468;BME280;37545;45.302;-122.946;2023-09-19T10:41:17;101308.03;;;13.67;53.03
51468;BME280;37545;45.302;-122.946;2023-09-19T10:43:51;101319.22;;;13.64;52.35
51468;BME280;37545;45.302;-122.946;2023-09-19T10:46:22;101310.50;;;13.62;52.26
51468;BME280;37545;45.302;-122.946;2023-09-19T10:48:52;101313.97;;;13.62;51.76
51468;BME280;37545;45.302;-122.946;2023-09-19T10:51:23;101320.91;;;13.62;52.03
51468;BME280;37545;45.302;-122.946;2023-09-19T10:54:01;101315.66;;;13.60;52.77
51468;BME280;37545;45.302;-122.946;2023-09-19T10:56:38;101315.66;;;13.60;53.42
51468;BME280;37545;45.302;-122.946;2023-09-19T10:59:14;101317.38;;;13.58;53.02
51468;BME280;37545;45.302;-122.946;2023-09-19T11:01:45;101303.41;;;13.55;53.76
51468;BME280;37545;45.302;-122.946;2023-09-19T11:04:24;101313.72;;;13.52;53.02
51468;BME280;37545;45.302;-122.946;2023-09-19T11:07:05;101303.28;;;13.50;53.64
51468;BME280;37545;45.302;-122.946;2023-09-19T11:09:49;101306.72;;;13.49;53.90
51468;BME280;37545;45.302;-122.946;2023-09-19T11:12:49;101311.00;;;13.47;53.28
51468;BME280;37545;45.302;-122.946;2023-09-19T11:19:01;101298.72;;;13.41;55.34
51468;BME280;37545;45.302;-122.946;2023-09-19T11:21:53;101309.16;;;13.43;55.75
51468;BME280;37545;45.302;-122.946;2023-09-19T11:24:40;101311.69;;;13.40;55.09
51468;BME280;37545;45.302;-122.946;2023-09-19T11:27:16;101323.91;;;13.44;54.50
51468;BME280;37545;45.302;-122.946;2023-09-19T11:29:46;101323.94;;;13.46;54.68
51468;BME280;37545;45.302;-122.946;2023-09-19T11:32:15;101323.91;;;13.44;54.19
51468;BME280;37545;45.302;-122.946;2023-09-19T11:34:50;101323.91;;;13.44;54.29
51468;BME280;37545;45.302;-122.946;2023-09-19T11:40:45;101320.53;;;13.48;55.88
51468;BME280;37545;45.302;-122.946;2023-09-19T11:43:31;101312.81;;;13.50;56.35
51468;BME280;37545;45.302;-122.946;2023-09-19T11:46:09;101317.13;;;13.49;56.43
51468;BME280;37545;45.302;-122.946;2023-09-19T11:48:41;101300.50;;;13.43;55.54
51468;BME280;37545;45.302;-122.946;2023-09-19T11:51:20;101303.16;;;13.46;55.16
51468;BME280;37545;45.302;-122.946;2023-09-19T11:53:53;101298.88;;;13.48;55.50
51468;BME280;37545;45.302;-122.946;2023-09-19T11:56:23;101293.69;;;13.48;55.42
51468;BME280;37545;45.302;-122.946;2023-09-19T11:58:54;101283.34;;;13.51;56.38
51468;BME280;37545;45.302;-122.946;2023-09-19T12:01:27;101282.41;;;13.47;55.43
51468;BME280;37545;45.302;-122.946;2023-09-19T12:03:56;101282.31;;;13.44;56.17
51468;BME280;37545;45.302;-122.946;2023-09-19T12:06:28;101288.19;;;13.37;56.75
51468;BME280;37545;45.302;-122.946;2023-09-19T12:08:59;101290.09;;;13.43;59.50
51468;BME280;37545;45.302;-122.946;2023-09-19T12:11:30;101296.97;;;13.40;57.35
51468;BME280;37545;45.302;-122.946;2023-09-19T12:14:02;101301.34;;;13.43;57.78
51468;BME280;37545;45.302;-122.946;2023-09-19T12:16:31;101311.81;;;13.46;57.12
51468;BME280;37545;45.302;-122.946;2023-09-19T12:19:17;101325.75;;;13.48;56.90
51468;BME280;37545;45.302;-122.946;2023-09-19T12:21:56;101330.94;;;13.48;56.60
51468;BME280;37545;45.302;-122.946;2023-09-19T12:24:26;101332.63;;;13.46;56.39
51468;BME280;37545;45.302;-122.946;2023-09-19T12:27:01;101345.66;;;13.48;55.97
51468;BME280;37545;45.302;-122.946;2023-09-19T12:29:32;101349.09;;;13.47;56.74
51468;BME280;37545;45.302;-122.946;2023-09-19T12:32:03;101356.88;;;13.45;55.69
51468;BME280;37545;45.302;-122.946;2023-09-19T12:34:33;101355.19;;;13.47;56.28
51468;BME280;37545;45.302;-122.946;2023-09-19T12:37:08;101360.41;;;13.47;56.09
51468;BME280;37545;45.302;-122.946;2023-09-19T12:39:43;101362.06;;;13.45;56.78
51468;BME280;37545;45.302;-122.946;2023-09-19T12:42:15;101359.34;;;13.40;56.98
51468;BME280;37545;45.302;-122.946;2023-09-19T12:44:46;101342.81;;;13.38;58.80
51468;BME280;37545;45.302;-122.946;2023-09-19T12:47:15;101338.25;;;13.30;57.87
51468;BME280;37545;45.302;-122.946;2023-09-19T12:50:10;101346.03;;;13.30;58.73
51468;BME280;37545;45.302;-122.946;2023-09-19T12:52:55;101333.91;;;13.29;59.29
51468;BME280;37545;45.302;-122.946;2023-09-19T12:55:27;101337.22;;;13.25;58.89